Time;durP1;ratioP1;P1;durP2;ratioP2;P2;SDS_P1;SDS_P2;PMS_P1;PMS_P2;Temp;Humidity;BMP_temperature;BMP_pressure;BME280_temperature;BME280_humidity;BME280_pressure;Samples;Min_cycle;Max_cycle;Signal;HPM_P1;HPM_P2
2021/12/22 00:02:03;;;;;;;41.00;16.92;;;;;;;-149.78;100.00;50702.22;5135948;27;20479;-67
2021/12/22 00:04:31;;;;;;;40.65;18.13;;;;;;;-149.78;100.00;50657.25;5135699;27;20115;-68
2021/12/22 00:06:57;;;;;;;44.70;18.45;;;;;;;-149.78;100.00;50682.66;5117650;27;20039;-74
2021/12/22 00:09:23;;;;;;;40.47;17.75;;;;;;;-149.78;100.00;50678.75;5136086;27;20483;-67
2021/12/22 00:11:49;;;;;;;48.67;18.83;;;;;;;-149.78;100.00;50647.47;5135496;27;20431;-68
2021/12/22 00:14:15;;;;;;;42.83;18.67;;;;;;;-149.78;100.00;50653.34;5134853;27;20116;-67
2021/12/22 00:16:41;;;;;;;48.08;19.00;;;;;;;-149.78;100.00;50651.38;5134487;27;20058;-67
2021/12/22 00:19:07;;;;;;;49.38;18.92;;;;;;;-149.78;100.00;50678.75;5134858;27;20059;-68
2021/12/22 00:21:33;;;;;;;49.05;19.92;;;;;;;-149.78;100.00;50647.47;5134604;27;20031;-68
2021/12/22 00:23:58;;;;;;;47.83;20.25;;;;;;;-149.78;100.00;50663.13;5135288;27;20019;-67
2021/12/22 00:26:24;;;;;;;51.33;19.95;;;;;;;-149.78;100.00;50659.19;5135321;27;20470;-68
2021/12/22 00:28:50;;;;;;;46.10;20.00;;;;;;;-149.78;100.00;50676.81;5135306;27;20035;-68
2021/12/22 00:31:19;;;;;;;55.00;21.40;;;;;;;-149.78;100.00;50670.94;5135015;27;20393;-74
2021/12/22 00:33:48;;;;;;;47.50;19.25;;;;;;;-149.78;100.00;50647.47;5116937;27;20057;-74
2021/12/22 00:36:15;;;;;;;49.58;19.88;;;;;;;-149.78;100.00;50655.28;5135411;27;20374;-74
2021/12/22 00:38:41;;;;;;;48.20;19.80;;;;;;;-149.78;100.00;50667.03;5135111;27;20043;-75
2021/12/22 00:41:07;;;;;;;48.60;20.30;;;;;;;-149.78;100.00;50676.81;5135144;27;20049;-75
2021/12/22 00:43:33;;;;;;;48.92;19.90;;;;;;;-149.78;100.00;50678.75;5135293;27;20467;-74
2021/12/22 00:45:59;;;;;;;52.20;20.75;;;;;;;-149.78;100.00;50622.03;5135269;27;20049;-75
2021/12/22 00:48:24;;;;;;;48.95;20.45;;;;;;;-149.78;100.00;50655.28;5135044;27;20035;-75
2021/12/22 00:50:50;;;;;;;50.55;21.15;;;;;;;-149.78;100.00;50651.38;5135110;27;20031;-67
2021/12/22 00:53:16;;;;;;;53.90;20.48;;;;;;;-149.78;100.00;50682.66;5099610;27;20054;-67
2021/12/22 00:55:42;;;;;;;50.85;20.35;;;;;;;-149.78;100.00;50676.81;5116423;27;20031;-68
2021/12/22 00:58:08;;;;;;;52.08;20.98;;;;;;;-149.78;100.00;50647.47;5116299;27;20028;-67
2021/12/22 01:00:34;;;;;;;50.45;21.40;;;;;;;-149.78;100.00;50686.59;5134783;27;20035;-67
2021/12/22 01:03:01;;;;;;;47.05;19.60;;;;;;;-149.78;100.00;50674.84;5134761;27;20058;-75
2021/12/22 01:05:27;;;;;;;52.42;21.00;;;;;;;-149.78;100.00;50672.91;5134892;27;20035;-74
2021/12/22 01:07:53;;;;;;;53.17;21.95;;;;;;;-149.78;100.00;50678.75;5116453;27;20355;-73
2021/12/22 01:10:23;;;;;;;55.53;22.50;;;;;;;-149.78;100.00;50686.59;5099328;27;20068;-74
2021/12/22 01:12:49;;;;;;;57.72;22.40;;;;;;;-149.78;100.00;50633.78;5134782;27;20027;-75
2021/12/22 01:15:15;;;;;;;44.63;19.42;;;;;;;-149.78;100.00;50667.03;5134638;27;20205;-75
2021/12/22 01:17:47;;;;;;;52.30;21.50;;;;;;;-149.78;100.00;50649.44;5116367;27;20036;-75
2021/12/22 01:20:50;;;;;;;53.72;23.23;;;;;;;-149.78;100.00;50631.81;5134529;27;20034;-75
2021/12/22 01:23:05;;;;;;;60.33;23.00;;;;;;;-149.78;100.00;50608.34;5133615;27;20040;-75
2021/12/22 01:25:41;;;;;;;55.63;22.15;;;;;;;-149.78;100.00;50643.56;5134502;27;20045;-68
2021/12/22 01:28:07;;;;;;;47.75;19.83;;;;;;;-149.78;100.00;50651.38;5116086;27;20095;-67
2021/12/22 01:30:33;;;;;;;54.70;21.10;;;;;;;-149.78;100.00;50643.56;5116354;27;20062;-68
2021/12/22 01:33:02;;;;;;;55.47;22.23;;;;;;;-149.78;100.00;50631.81;5134458;27;20138;-67
2021/12/22 01:35:30;;;;;;;54.22;21.30;;;;;;;-149.78;100.00;50667.03;5134402;27;20118;-68
2021/12/22 01:37:56;;;;;;;56.58;21.23;;;;;;;-149.78;100.00;50625.94;5133256;27;20054;-68
2021/12/22 01:40:23;;;;;;;57.80;23.05;;;;;;;-149.78;100.00;50659.19;5134086;27;20080;-67
2021/12/22 01:42:51;;;;;;;57.78;22.23;;;;;;;-149.78;100.00;50655.28;5113382;27;20459;-75
2021/12/22 01:45:30;;;;;;;64.85;23.13;;;;;;;-149.78;100.00;50674.84;5113153;28;20032;-75
2021/12/22 01:50:45;;;;;;;58.95;22.38;;;;;;;-149.78;100.00;50667.03;5113353;28;20035;-74
2021/12/22 01:53:20;;;;;;;55.33;22.30;;;;;;;-149.78;100.00;50639.66;5113484;28;20036;-74
2021/12/22 01:56:00;;;;;;;62.13;23.05;;;;;;;-149.78;100.00;50670.94;5113495;28;20522;-67
2021/12/22 01:58:33;;;;;;;62.17;23.70;;;;;;;-149.78;100.00;50690.50;5113685;28;20564;-75
2021/12/22 02:01:01;;;;;;;62.28;23.98;;;;;;;-149.78;100.00;50651.38;5112618;28;20035;-68
2021/12/22 02:03:26;;;;;;;59.17;22.33;;;;;;;-149.78;100.00;50663.13;5113299;28;20459;-75
2021/12/22 02:05:52;;;;;;;60.95;23.73;;;;;;;-149.78;100.00;50686.59;5113251;28;20036;-67
2021/12/22 02:08:18;;;;;;;65.15;24.70;;;;;;;-149.78;100.00;50702.22;5113439;28;20062;-67
2021/12/22 02:10:47;;;;;;;62.50;23.67;;;;;;;-149.78;100.00;50668.97;5078566;28;20116;-68
2021/12/22 02:13:21;;;;;;;66.20;24.10;;;;;;;-149.78;100.00;50670.94;5127863;28;20122;-68
2021/12/22 02:15:48;;;;;;;62.15;23.52;;;;;;;-149.78;100.00;50639.66;5133708;28;20035;-67
2021/12/22 02:18:19;;;;;;;65.82;23.65;;;;;;;-149.78;100.00;50667.03;5133950;27;20434;-74
2021/12/22 02:20:50;;;;;;;57.97;22.35;;;;;;;-149.78;100.00;50674.84;5133892;28;20108;-75
2021/12/22 02:23:16;;;;;;;66.63;25.30;;;;;;;-149.78;100.00;50674.84;5134151;28;20535;-68
2021/12/22 02:25:51;;;;;;;61.72;23.42;;;;;;;-149.78;100.00;50737.44;5115395;27;20039;-67
2021/12/22 02:28:26;;;;;;;66.88;23.17;;;;;;;-149.78;100.00;50668.97;5125794;28;20039;-75
2021/12/22 02:30:53;;;;;;;63.20;22.98;;;;;;;-149.78;100.00;50700.28;5125538;28;20122;-75
2021/12/22 02:33:23;;;;;;;68.22;24.95;;;;;;;-149.78;100.00;50635.72;5114417;28;20050;-75
2021/12/22 02:36:40;;;;;;;73.35;25.42;;;;;;;-149.78;100.00;50710.06;5133755;28;20066;-75
2021/12/22 02:38:45;;;;;;;72.15;25.75;;;;;;;-149.78;100.00;50678.75;5122730;28;20057;-74
2021/12/22 02:41:14;;;;;;;76.65;27.52;;;;;;;-149.78;100.00;50657.25;5133881;28;20030;-67
2021/12/22 02:43:50;;;;;;;68.30;25.30;;;;;;;-149.78;100.00;50670.94;5133857;28;20023;-74
2021/12/22 02:46:20;;;;;;;66.05;24.45;;;;;;;-149.78;100.00;50637.69;5130984;28;20099;-67
2021/12/22 02:48:47;;;;;;;73.15;23.83;;;;;;;-149.78;100.00;50670.94;5133346;27;20089;-68
2021/12/22 02:51:13;;;;;;;75.88;25.92;;;;;;;-149.78;100.00;50735.47;5098121;28;20356;-67
2021/12/22 02:54:01;;;;;;;78.13;27.15;;;;;;;-149.78;100.00;50698.31;5133446;28;20557;-75
2021/12/22 02:57:21;;;;;;;75.07;23.73;;;;;;;-149.78;100.00;50688.53;5137669;27;20033;-75
2021/12/22 03:02:42;;;;;;;77.75;25.20;;;;;;;-149.78;100.00;50651.38;5053740;28;20417;-75
2021/12/22 03:05:05;;;;;;;72.68;24.55;;;;;;;-149.78;100.00;50661.16;5132053;27;20046;-68
2021/12/22 03:07:31;;;;;;;71.07;25.45;;;;;;;-149.78;100.00;50670.94;5101961;27;20039;-67
2021/12/22 03:10:03;;;;;;;82.03;26.20;;;;;;;-149.78;100.00;50667.03;5136944;27;20035;-67
2021/12/22 03:12:32;;;;;;;74.18;24.77;;;;;;;-149.78;100.00;50682.66;5137025;27;20131;-67
2021/12/22 03:14:58;;;;;;;74.13;25.27;;;;;;;-149.78;100.00;50672.91;5136943;27;20031;-67
2021/12/22 03:17:24;;;;;;;71.93;25.60;;;;;;;-149.78;100.00;50680.72;5136962;27;20080;-67
2021/12/22 03:19:50;;;;;;;77.93;26.42;;;;;;;-149.78;100.00;50686.59;5118256;27;20490;-68
2021/12/22 03:22:19;;;;;;;77.38;26.65;;;;;;;-149.78;100.00;50682.66;5136515;27;20122;-67
2021/12/22 03:24:47;;;;;;;78.60;26.38;;;;;;;-149.78;100.00;50682.66;5118630;27;20352;-67
2021/12/22 03:27:12;;;;;;;71.72;25.33;;;;;;;-149.78;100.00;50694.41;5136927;27;20107;-67
2021/12/22 03:29:39;;;;;;;83.45;27.25;;;;;;;-149.78;100.00;50690.50;5136577;27;20039;-67
2021/12/22 03:32:09;;;;;;;81.70;25.83;;;;;;;-149.78;100.00;50700.28;5118101;27;20394;-67
2021/12/22 03:34:35;;;;;;;74.03;25.80;;;;;;;-149.78;100.00;50713.97;5136530;27;20494;-66
2021/12/22 03:37:01;;;;;;;89.55;27.77;;;;;;;-149.78;100.00;50688.53;5117886;27;20533;-67
2021/12/22 03:39:28;;;;;;;75.05;27.02;;;;;;;-149.78;100.00;50670.94;5136649;27;20062;-67
2021/12/22 03:41:55;;;;;;;84.57;27.25;;;;;;;-149.78;100.00;50704.19;5136508;27;20080;-67
2021/12/22 03:44:21;;;;;;;88.38;27.27;;;;;;;-149.78;100.00;50698.31;5117954;27;20114;-67
2021/12/22 03:46:46;;;;;;;79.72;26.25;;;;;;;-149.78;100.00;50667.03;5136384;27;20118;-67
2021/12/22 03:49:14;;;;;;;82.32;28.23;;;;;;;-149.78;100.00;50721.78;5136433;27;20034;-67
2021/12/22 03:51:41;;;;;;;83.47;28.77;;;;;;;-149.78;100.00;50686.59;5136359;27;20062;-67
2021/12/22 03:54:09;;;;;;;89.18;27.88;;;;;;;-149.78;100.00;50721.78;5136040;27;20023;-67
2021/12/22 03:56:35;;;;;;;82.13;28.45;;;;;;;-149.78;100.00;50710.06;5136384;27;20035;-66
2021/12/22 03:59:02;;;;;;;92.47;29.15;;;;;;;-149.78;100.00;50698.31;5136310;27;20467;-67
2021/12/22 04:01:27;;;;;;;84.70;28.40;;;;;;;-149.78;100.00;50657.25;5118014;27;20080;-67
2021/12/22 04:03:57;;;;;;;92.40;29.30;;;;;;;-149.78;100.00;50678.75;5100855;27;20546;-67
2021/12/22 04:06:23;;;;;;;80.15;28.42;;;;;;;-149.78;100.00;50713.97;5135341;27;20042;-67
2021/12/22 04:08:48;;;;;;;84.68;28.27;;;;;;;-149.78;100.00;50698.31;5135946;27;20027;-66
2021/12/22 04:11:14;;;;;;;87.32;28.48;;;;;;;-149.78;100.00;50717.88;5136165;27;20046;-67
2021/12/22 04:13:40;;;;;;;82.55;27.08;;;;;;;-149.78;100.00;50643.56;5117594;27;20035;-66
2021/12/22 04:16:06;;;;;;;84.55;27.40;;;;;;;-149.78;100.00;50690.50;5117735;27;20046;-67
2021/12/22 04:18:31;;;;;;;90.07;27.85;;;;;;;-149.78;100.00;50708.09;5135906;27;20084;-66
2021/12/22 04:20:57;;;;;;;87.70;30.30;;;;;;;-149.78;100.00;50694.41;5117326;27;20053;-66
2021/12/22 04:23:22;;;;;;;90.45;30.00;;;;;;;-149.78;100.00;50657.25;5135824;27;20035;-66
2021/12/22 04:25:48;;;;;;;87.45;28.02;;;;;;;-149.78;100.00;50647.47;5135331;27;20031;-67
2021/12/22 04:28:14;;;;;;;87.15;28.02;;;;;;;-149.78;100.00;50665.06;5117324;27;20371;-67
2021/12/22 04:30:48;;;;;;;91.57;29.33;;;;;;;-149.78;100.00;50686.59;5117247;27;20482;-67
2021/12/22 04:33:15;;;;;;;82.07;29.65;;;;;;;-149.78;100.00;50682.66;5135339;27;20371;-67
2021/12/22 04:35:41;;;;;;;86.22;29.25;;;;;;;-149.78;100.00;50647.47;5116759;27;20442;-67
2021/12/22 04:38:07;;;;;;;84.20;27.40;;;;;;;-149.78;100.00;50702.22;5116942;27;20146;-67
2021/12/22 04:40:33;;;;;;;89.68;28.00;;;;;;;-149.78;100.00;50670.94;5117003;27;20135;-66
2021/12/22 04:42:58;;;;;;;84.70;28.80;;;;;;;-149.78;100.00;50651.38;5135186;27;20074;-66
2021/12/22 04:45:25;;;;;;;88.80;28.27;;;;;;;-149.78;100.00;50682.66;5100194;27;20058;-67
2021/12/22 04:47:51;;;;;;;82.68;27.63;;;;;;;-149.78;100.00;50686.59;5116775;27;20031;-67
2021/12/22 04:50:22;;;;;;;82.68;28.25;;;;;;;-149.78;100.00;50678.75;5135224;27;20065;-67
2021/12/22 04:55:21;;;;;;;85.97;27.55;;;;;;;-149.78;100.00;50678.75;5132837;27;20031;-67
2021/12/22 04:57:48;;;;;;;88.60;28.02;;;;;;;-149.78;100.00;50686.59;5113574;27;20099;-67
2021/12/22 05:00:16;;;;;;;80.35;27.33;;;;;;;-149.78;100.00;50674.84;5129559;27;20048;-67
2021/12/22 05:02:42;;;;;;;94.57;27.70;;;;;;;-149.78;100.00;50698.31;5128050;27;20034;-66
2021/12/22 05:05:08;;;;;;;85.07;27.42;;;;;;;-149.78;100.00;50694.41;5134534;27;20034;-67
2021/12/22 05:07:34;;;;;;;89.18;28.85;;;;;;;-149.78;100.00;50698.31;5099510;27;20027;-66
2021/12/22 05:10:00;;;;;;;90.97;26.70;;;;;;;-149.78;100.00;50702.22;5134749;27;20062;-67
2021/12/22 05:12:25;;;;;;;90.30;26.70;;;;;;;-149.78;100.00;50729.63;5134075;27;20042;-67
2021/12/22 05:14:52;;;;;;;72.63;26.02;;;;;;;-149.78;100.00;50710.06;5134394;27;20347;-67
2021/12/22 05:17:37;;;;;;;76.22;25.00;;;;;;;-149.78;100.00;50686.59;5134256;27;20035;-67
2021/12/22 05:20:04;;;;;;;78.53;25.48;;;;;;;-149.78;100.00;50676.81;5134424;27;20076;-66
2021/12/22 05:22:29;;;;;;;84.15;26.60;;;;;;;-149.78;100.00;50690.50;5117074;27;20039;-67
2021/12/22 05:24:57;;;;;;;78.20;24.55;;;;;;;-149.78;100.00;50670.94;5115963;27;20087;-66
2021/12/22 05:27:23;;;;;;;75.78;24.42;;;;;;;-149.78;100.00;50704.19;5134643;27;20035;-67
2021/12/22 05:29:49;;;;;;;80.95;26.48;;;;;;;-149.78;100.00;50698.31;5134158;27;20035;-66
2021/12/22 05:32:15;;;;;;;83.03;25.27;;;;;;;-149.78;100.00;50713.97;5134393;27;20038;-67
2021/12/22 05:34:40;;;;;;;78.53;24.92;;;;;;;-149.78;100.00;50706.16;5134305;27;20107;-67
2021/12/22 05:37:06;;;;;;;78.53;26.77;;;;;;;-149.78;100.00;50702.22;5135834;27;20051;-67
2021/12/22 05:39:32;;;;;;;79.65;24.83;;;;;;;-149.78;100.00;50710.06;5139795;27;20050;-67
2021/12/22 05:41:59;;;;;;;73.55;25.42;;;;;;;-149.78;100.00;50717.88;5095042;28;20035;-67
2021/12/22 05:44:25;;;;;;;73.38;23.73;;;;;;;-149.78;100.00;50698.31;5095937;28;20035;-67
2021/12/22 05:46:51;;;;;;;76.45;24.13;;;;;;;-149.78;100.00;50694.41;5095178;28;20089;-66
2021/12/22 05:49:16;;;;;;;82.78;25.88;;;;;;;-149.78;100.00;50694.41;5113664;28;20031;-67
2021/12/22 05:51:42;;;;;;;73.00;23.73;;;;;;;-149.78;100.00;50684.63;5113523;28;20447;-67
2021/12/22 05:54:08;;;;;;;71.78;24.60;;;;;;;-149.78;100.00;50643.56;5113353;28;20353;-67
2021/12/22 05:56:34;;;;;;;75.57;23.35;;;;;;;-149.78;100.00;50682.66;5113870;28;20115;-67
2021/12/22 05:59:00;;;;;;;69.60;21.85;;;;;;;-149.78;100.00;50690.50;5113474;28;20033;-67
2021/12/22 06:01:27;;;;;;;77.88;23.75;;;;;;;-149.78;100.00;50667.03;5113383;28;20040;-67
2021/12/22 06:03:53;;;;;;;67.53;23.20;;;;;;;-149.78;100.00;50704.19;5118608;28;20054;-67
2021/12/22 06:06:18;;;;;;;72.75;22.88;;;;;;;-149.78;100.00;50676.81;5115508;28;20490;-67
2021/12/22 06:08:44;;;;;;;70.25;22.80;;;;;;;-149.78;100.00;50674.84;5115471;27;20110;-67
2021/12/22 06:11:10;;;;;;;82.93;24.90;;;;;;;-149.78;100.00;50723.75;5133767;28;20057;-66
2021/12/22 06:13:35;;;;;;;75.78;24.08;;;;;;;-149.78;100.00;50700.28;5134062;28;20042;-66
2021/12/22 06:16:00;;;;;;;72.55;24.00;;;;;;;-149.78;100.00;50712.00;5115519;28;20500;-66
2021/12/22 06:18:28;;;;;;;69.18;22.92;;;;;;;-149.78;100.00;50686.59;5115625;28;20039;-67
2021/12/22 06:20:53;;;;;;;76.65;23.35;;;;;;;-149.78;100.00;50710.06;5133824;27;20462;-67
2021/12/22 06:23:19;;;;;;;74.38;23.00;;;;;;;-149.78;100.00;50698.31;5133843;28;20036;-67
2021/12/22 06:25:44;;;;;;;75.20;22.75;;;;;;;-149.78;100.00;50710.06;5133873;28;20084;-66
2021/12/22 06:28:10;;;;;;;72.13;22.77;;;;;;;-149.78;100.00;50694.41;5115701;28;20450;-67
2021/12/22 06:30:36;;;;;;;76.63;23.13;;;;;;;-149.78;100.00;50741.34;5137064;27;20039;-67
2021/12/22 06:33:02;;;;;;;69.25;22.45;;;;;;;-149.78;100.00;50698.31;5137434;27;20271;-67
2021/12/22 06:35:28;;;;;;;72.82;22.52;;;;;;;-149.78;100.00;50670.94;5112736;27;20371;-67
2021/12/22 06:37:54;;;;;;;72.38;22.77;;;;;;;-149.78;100.00;50717.88;5137452;27;20059;-67
2021/12/22 06:40:20;;;;;;;75.07;20.90;;;;;;;-149.78;100.00;50690.50;5119305;27;20035;-67
2021/12/22 06:42:46;;;;;;;71.32;21.65;;;;;;;-149.78;100.00;50686.59;5137684;27;20038;-67
2021/12/22 06:45:13;;;;;;;66.00;22.55;;;;;;;-149.78;100.00;50686.59;5137815;27;20042;-67
2021/12/22 06:47:39;;;;;;;65.18;20.63;;;;;;;-149.78;100.00;50665.06;5137588;27;20114;-67
2021/12/22 06:50:07;;;;;;;64.57;21.83;;;;;;;-149.78;100.00;50663.13;5119119;27;20036;-66
2021/12/22 06:52:33;;;;;;;66.82;21.83;;;;;;;-149.78;100.00;50674.84;5137463;27;20027;-66
2021/12/22 06:54:58;;;;;;;75.05;22.13;;;;;;;-149.78;100.00;50674.84;5137325;27;20023;-67
2021/12/22 06:57:24;;;;;;;66.13;21.70;;;;;;;-149.78;100.00;50690.50;5118834;27;20535;-67
2021/12/22 06:59:50;;;;;;;64.57;21.08;;;;;;;-149.78;100.00;50659.19;5137387;27;20035;-66
2021/12/22 07:02:16;;;;;;;69.90;22.25;;;;;;;-149.78;100.00;50725.69;5154695;27;20029;-66
2021/12/22 07:04:42;;;;;;;68.60;22.52;;;;;;;-149.78;100.00;50684.63;5118761;27;20046;-67
2021/12/22 07:07:08;;;;;;;65.03;21.48;;;;;;;-149.78;100.00;50682.66;5136074;27;20035;-66
2021/12/22 07:09:33;;;;;;;79.45;22.25;;;;;;;-149.78;100.00;50682.66;5118810;27;20088;-66
2021/12/22 07:11:59;;;;;;;60.53;20.23;;;;;;;-149.78;100.00;50686.59;5117838;27;20091;-66
2021/12/22 07:14:25;;;;;;;68.90;21.63;;;;;;;-149.78;100.00;50657.25;5137090;27;20122;-67
2021/12/22 07:16:51;;;;;;;67.15;20.85;;;;;;;-149.78;100.00;50690.50;5151877;27;20038;-66
2021/12/22 07:19:17;;;;;;;66.40;21.17;;;;;;;-149.78;100.00;50694.41;5139376;27;20039;-67
2021/12/22 07:21:44;;;;;;;75.18;22.70;;;;;;;-149.78;100.00;50710.06;5157553;27;20031;-66
2021/12/22 07:24:10;;;;;;;67.60;20.58;;;;;;;-149.78;100.00;50694.41;5157476;27;20118;-65
2021/12/22 07:26:37;;;;;;;63.60;20.52;;;;;;;-149.78;100.00;50717.88;5158263;27;20062;-74
2021/12/22 07:29:04;;;;;;;70.78;20.73;;;;;;;-149.78;100.00;50682.66;5157634;27;20034;-73
2021/12/22 07:31:30;;;;;;;68.38;20.52;;;;;;;-149.78;100.00;50674.84;5157782;27;20035;-74
2021/12/22 07:34:05;;;;;;;67.07;20.60;;;;;;;-149.78;100.00;50690.50;5147577;27;20034;-74
2021/12/22 07:36:31;;;;;;;63.58;20.88;;;;;;;-149.78;100.00;50702.22;5151165;27;20035;-73
2021/12/22 07:39:03;;;;;;;59.70;20.63;;;;;;;-149.78;100.00;50713.97;5126243;27;20053;-74
2021/12/22 07:41:30;;;;;;;64.35;20.45;;;;;;;-149.78;100.00;50686.59;5147459;27;20034;-74
2021/12/22 07:43:56;;;;;;;72.38;20.95;;;;;;;-149.78;100.00;50678.75;5130063;27;20022;-73
2021/12/22 07:46:22;;;;;;;70.68;21.15;;;;;;;-149.78;100.00;50721.78;5139851;27;20532;-74
2021/12/22 07:48:48;;;;;;;63.38;19.92;;;;;;;-149.78;100.00;50678.75;5143842;27;20117;-75
2021/12/22 07:51:14;;;;;;;65.15;20.38;;;;;;;-149.78;100.00;50694.41;5124811;27;20531;-74
2021/12/22 07:53:40;;;;;;;64.53;19.42;;;;;;;-149.78;100.00;50670.94;5157193;27;20030;-74
2021/12/22 07:56:05;;;;;;;63.65;19.90;;;;;;;-149.78;100.00;50678.75;5138249;27;20046;-73
2021/12/22 07:58:31;;;;;;;58.88;19.48;;;;;;;-149.78;100.00;50672.91;5129465;27;20045;-74
2021/12/22 08:00:57;;;;;;;62.40;19.50;;;;;;;-149.78;100.00;50710.06;5132330;27;20042;-72
2021/12/22 08:03:25;;;;;;;59.13;18.48;;;;;;;-149.78;100.00;50651.38;5140793;27;20029;-71
2021/12/22 08:05:51;;;;;;;61.17;18.98;;;;;;;-149.78;100.00;50706.16;5140293;27;20027;-71
2021/12/22 08:08:18;;;;;;;64.47;19.92;;;;;;;-149.78;100.00;50686.59;5138304;27;20150;-71
2021/12/22 08:10:45;;;;;;;58.58;18.33;;;;;;;-149.78;100.00;50690.50;5133122;27;20072;-71
2021/12/22 08:13:11;;;;;;;59.40;18.63;;;;;;;-149.78;100.00;50710.06;5129088;27;20080;-71
2021/12/22 08:15:37;;;;;;;60.50;19.15;;;;;;;-149.78;100.00;50686.59;5143121;27;20486;-71
2021/12/22 08:18:02;;;;;;;64.05;18.95;;;;;;;-149.78;100.00;50686.59;5125721;27;20027;-70
2021/12/22 08:20:29;;;;;;;49.22;16.67;;;;;;;-149.78;100.00;50721.78;5144234;27;20525;-71
2021/12/22 08:22:55;;;;;;;56.97;17.10;;;;;;;-149.78;100.00;50694.41;5133415;27;20047;-71
2021/12/22 08:25:21;;;;;;;60.88;17.40;;;;;;;-149.78;100.00;50686.59;5150373;27;20030;-64
2021/12/22 08:27:47;;;;;;;53.63;17.92;;;;;;;-149.78;100.00;50686.59;5147577;27;20118;-63
2021/12/22 08:30:13;;;;;;;65.65;17.17;;;;;;;-149.78;100.00;50659.19;5133455;27;20552;-63
2021/12/22 08:32:39;;;;;;;57.85;17.33;;;;;;;-149.78;100.00;50702.22;5138760;27;20126;-63
2021/12/22 08:35:07;;;;;;;53.13;16.75;;;;;;;-149.78;100.00;50637.69;5126561;27;20109;-64
2021/12/22 08:40:21;;;;;;;55.55;17.25;;;;;;;-149.78;100.00;50667.03;5147067;27;20031;-64
2021/12/22 08:42:50;;;;;;;46.33;16.05;;;;;;;-149.78;100.00;50684.63;5142637;27;20055;-64
2021/12/22 08:45:17;;;;;;;44.53;16.30;;;;;;;-149.78;100.00;50710.06;5122348;27;20031;-64
2021/12/22 08:47:44;;;;;;;56.65;18.25;;;;;;;-149.78;100.00;50702.22;5146447;27;20078;-64
2021/12/22 08:50:11;;;;;;;47.92;16.65;;;;;;;-149.78;100.00;50651.38;5128610;27;20043;-64
2021/12/22 08:52:38;;;;;;;55.08;16.20;;;;;;;-149.78;100.00;50690.50;5125537;27;20042;-64
2021/12/22 08:55:04;;;;;;;52.10;16.58;;;;;;;-149.78;100.00;50686.59;5122081;27;20027;-64
2021/12/22 08:57:30;;;;;;;45.65;16.35;;;;;;;-149.78;100.00;50710.06;5137152;27;20027;-64
2021/12/22 08:59:55;;;;;;;50.42;15.77;;;;;;;-149.78;100.00;50661.16;5136578;27;20481;-64
2021/12/22 09:02:22;;;;;;;47.30;15.10;;;;;;;-149.78;100.00;50663.13;5115315;27;20477;-64
2021/12/22 09:04:48;;;;;;;44.65;16.00;;;;;;;-149.78;100.00;50682.66;5131010;27;20470;-65
2021/12/22 09:07:14;;;;;;;51.35;16.30;;;;;;;-149.78;100.00;50712.00;5138318;27;20057;-65
2021/12/22 09:09:39;;;;;;;52.58;17.30;;;;;;;-149.78;100.00;50712.00;5127979;27;20060;-64
2021/12/22 09:12:06;;;;;;;58.55;17.85;;;;;;;-149.78;100.00;50676.81;5130887;27;20516;-65
2021/12/22 09:14:32;;;;;;;51.55;17.08;;;;;;;-149.78;100.00;50686.59;5124891;27;20111;-63
2021/12/22 09:16:58;;;;;;;52.13;16.95;;;;;;;-149.78;100.00;50698.31;5118730;27;20082;-65
2021/12/22 09:19:24;;;;;;;42.58;14.32;;;;;;;-149.78;100.00;50651.38;5136685;27;20092;-65
2021/12/22 09:21:51;;;;;;;52.47;16.90;;;;;;;-149.78;100.00;50655.28;5128411;27;20030;-65
2021/12/22 09:24:17;;;;;;;58.10;16.45;;;;;;;-149.78;100.00;50655.28;5128603;27;20100;-65
2021/12/22 09:26:44;;;;;;;44.60;15.75;;;;;;;-149.78;100.00;50690.50;5113086;27;20043;-65
2021/12/22 09:29:10;;;;;;;45.53;16.05;;;;;;;-149.78;100.00;50655.28;5107177;27;20039;-65
2021/12/22 09:31:36;;;;;;;44.70;16.33;;;;;;;-149.78;100.00;50678.75;5127170;27;20035;-65
2021/12/22 09:34:02;;;;;;;52.40;16.85;;;;;;;-149.78;100.00;50635.72;5137197;27;20059;-65
2021/12/22 09:36:29;;;;;;;55.80;17.45;;;;;;;-149.78;100.00;50672.91;5140316;27;20358;-65
2021/12/22 09:38:55;;;;;;;42.92;14.88;;;;;;;-149.78;100.00;50655.28;5103726;27;20424;-65
2021/12/22 09:41:22;;;;;;;57.83;16.88;;;;;;;-149.78;100.00;50682.66;5138408;27;20039;-66
2021/12/22 09:43:51;;;;;;;51.63;16.40;;;;;;;-149.78;100.00;50672.91;5106318;27;20033;-66
2021/12/22 09:46:20;;;;;;;45.53;15.07;;;;;;;-149.78;100.00;50690.50;5122916;27;20039;-65
2021/12/22 09:53:51;;;;;;;50.72;15.07;;;;;;;-149.78;100.00;50665.06;5137723;27;20086;-66
2021/12/22 09:56:21;;;;;;;42.85;14.48;;;;;;;-149.78;100.00;50686.59;5141620;27;20336;-66
2021/12/22 09:58:49;;;;;;;45.05;15.25;;;;;;;-149.78;100.00;50700.28;5137795;27;20029;-65
2021/12/22 10:01:22;;;;;;;43.38;14.57;;;;;;;-149.78;100.00;50667.03;5139316;27;20050;-66
2021/12/22 10:03:58;;;;;;;44.80;15.18;;;;;;;-149.78;100.00;50698.31;5143282;27;20030;-66
2021/12/22 10:06:26;;;;;;;46.50;13.98;;;;;;;-149.78;100.00;50682.66;5144465;27;20035;-66
2021/12/22 10:08:57;;;;;;;42.97;14.15;;;;;;;-149.78;100.00;50647.47;5130062;27;20030;-66
2021/12/22 10:11:24;;;;;;;36.67;13.50;;;;;;;-149.78;100.00;50674.84;5124302;27;20028;-67
2021/12/22 10:13:49;;;;;;;44.25;14.07;;;;;;;-149.78;100.00;50659.19;5127887;27;20552;-66
2021/12/22 10:16:18;;;;;;;41.75;14.57;;;;;;;-149.78;100.00;50690.50;5131344;27;20115;-67
2021/12/22 10:18:45;;;;;;;43.97;15.68;;;;;;;-149.78;100.00;50674.84;5151326;27;20030;-67
2021/12/22 10:21:23;;;;;;;42.78;14.13;;;;;;;-149.78;100.00;50690.50;5145640;27;20027;-67
2021/12/22 10:23:52;;;;;;;37.83;14.55;;;;;;;-149.78;100.00;50670.94;5131180;27;20019;-66
2021/12/22 10:26:21;;;;;;;41.13;15.45;;;;;;;-149.78;100.00;50690.50;5132090;27;20027;-67
2021/12/22 10:29:13;;;;;;;48.72;15.40;;;;;;;-149.78;100.00;50622.03;5098708;27;20054;-67
2021/12/22 10:31:42;;;;;;;43.15;15.38;;;;;;;-149.78;100.00;50651.38;5109025;27;20035;-66
2021/12/22 10:34:11;;;;;;;47.63;14.95;;;;;;;-149.78;100.00;50680.72;5138104;27;20050;-66
2021/12/22 10:36:55;;;;;;;40.60;14.85;;;;;;;-149.78;100.00;50665.06;5121891;27;20330;-67
2021/12/22 10:39:28;;;;;;;44.05;15.38;;;;;;;-149.78;100.00;50651.38;5115827;27;20031;-66
2021/12/22 10:42:05;;;;;;;49.42;16.13;;;;;;;-149.78;100.00;50686.59;5132398;27;20031;-66
2021/12/22 10:44:33;;;;;;;43.78;14.15;;;;;;;-149.78;100.00;50655.28;5136914;27;20023;-66
2021/12/22 10:47:31;;;;;;;45.22;15.25;;;;;;;-149.78;100.00;50680.72;5137351;27;20023;-66
2021/12/22 10:50:04;;;;;;;45.25;15.02;;;;;;;-149.78;100.00;50694.41;5140003;27;20038;-65
2021/12/22 10:52:31;;;;;;;44.95;15.02;;;;;;;-149.78;100.00;50672.91;5120377;27;20042;-68
2021/12/22 10:55:14;;;;;;;43.97;15.75;;;;;;;-149.78;100.00;50678.75;5137440;27;20034;-67
2021/12/22 10:57:43;;;;;;;40.15;14.60;;;;;;;-149.78;100.00;50706.16;5139696;27;20045;-71
2021/12/22 11:00:16;;;;;;;47.10;15.52;;;;;;;-149.78;100.00;50655.28;5099111;27;20126;-68
2021/12/22 11:02:50;;;;;;;48.25;14.68;;;;;;;-149.78;100.00;50657.25;5119391;27;20054;-68
2021/12/22 11:05:28;;;;;;;40.42;14.60;;;;;;;-149.78;100.00;50688.53;5126099;27;20038;-68
2021/12/22 11:07:55;;;;;;;40.15;14.50;;;;;;;-149.78;100.00;50651.38;5139468;27;20038;-68
2021/12/22 11:10:30;;;;;;;37.67;14.38;;;;;;;-149.78;100.00;50710.06;5130341;27;20031;-68
2021/12/22 11:13:03;;;;;;;45.08;15.43;;;;;;;-149.78;100.00;50651.38;5134117;27;20050;-68
2021/12/22 11:15:38;;;;;;;34.83;12.70;;;;;;;-149.78;100.00;50684.63;5138790;27;20081;-69